Terminal Aerodrome Forecast
Issued by NWS Cleveland, OH

Home | Current Version | Previous Version | Text Only | Print | Product List | Glossary Off
Versions: 1 2 3 4 5 6 7 8 9 10 11 12 13 14 15 16 17 18 19 20 21 22 23 24 25

000
FTUS41 KCLE 242000 AAA
TAFCLE
TAF AMD
KCLE 242058Z 2421/2524 36006KT P6SM SKC
     FM242300 36006KT P6SM OVC250
     FM250500 09004KT P6SM SCT040 OVC100
     FM251200 06012G18KT P6SM SCT025 OVC040=

USA.gov is the U.S. government's official web portal to all federal, state and local government web resources and services.